This is the latest recevied weather packets stored in our database for station/object KA7KDX-4. If no packets are shown the sender has not sent any weather packets the latest 1 day(s).
| Time | Temp. | Humidity | Pressure | Rain* | Wind** | Luminosity | Snow |
|---|---|---|---|---|---|---|---|
| 1778037605 | 13.33° C | 52% | 1006.4 hPa | 0 mm | 3.13 m/s, 197° | - | - |
| 1778037305 | 13.33° C | 52% | 1006.3 hPa | 0 mm | 2.24 m/s, 206° | - | - |
| 1778037006 | 13.33° C | 51% | 1006.2 hPa | 0 mm | 2.24 m/s, 211° | - | - |
| 1778036706 | 13.33° C | 51% | 1006.1 hPa | 0 mm | 1.79 m/s, 203° | - | - |
| 1778036406 | 13.89° C | 50% | 1005.9 hPa | 0 mm | 2.24 m/s, 200° | - | - |
| 1778036106 | 13.89° C | 50% | 1005.8 hPa | 0 mm | 3.58 m/s, 194° | - | - |
| 1778035806 | 13.89° C | 52% | 1005.8 hPa | 0 mm | 3.13 m/s, 192° | - | - |
| 1778035505 | 13.89° C | 53% | 1005.5 hPa | 0 mm | 2.24 m/s, 199° | - | - |
| 1778035205 | 15° C | 50% | 1004.9 hPa | 0 mm | 2.24 m/s, 219° | - | - |
| 1778034905 | 15.56° C | 46% | 1004.5 hPa | 0 mm | 1.79 m/s, 218° | - | - |
| 1778034605 | 16.11° C | 45% | 1004.3 hPa | 0 mm | 0.45 m/s, 213° | - | - |
| 1778034305 | 16.11° C | 44% | 1004.1 hPa | 0 mm | 0.89 m/s, 212° | - | - |
| 1778034005 | 16.11° C | 43% | 1003.9 hPa | 0 mm | 0.45 m/s, 255° | - | - |
| 1778033706 | 16.67° C | 43% | 1003.8 hPa | 0 mm | 0.45 m/s, 319° | - | - |
| 1778033406 | 16.67° C | 42% | 1003.7 hPa | 0 mm | 0.45 m/s, 27° | - | - |
| 1778033106 | 16.67° C | 42% | 1003.7 hPa | 0 mm | 0.45 m/s, 105° | - | - |
| 1778032805 | 16.67° C | 42% | 1003.7 hPa | 0 mm | 0.89 m/s, 63° | - | - |
| 1778032505 | 16.67° C | 41% | 1003.7 hPa | 0 mm | 1.34 m/s, 360° | - | - |
| 1778032205 | 16.67° C | 41% | 1003.7 hPa | 0 mm | 1.34 m/s, 19° | - | - |
| 1778031905 | 16.67° C | 42% | 1003.7 hPa | 0 mm | 1.34 m/s, 27° | - | - |
| 1778031605 | 16.67° C | 42% | 1003.6 hPa | 0 mm | 1.34 m/s, 26° | - | - |
| 1778031305 | 17.22° C | 41% | 1003.5 hPa | 0.25 mm | 1.79 m/s, 15° | - | - |
| 1778031006 | 17.22° C | 41% | 1003.5 hPa | 0.25 mm | 2.68 m/s, 4° | - | - |
| 1778030706 | 17.22° C | 41% | 1003.5 hPa | 0.25 mm | 2.24 m/s, 9° | - | - |
| 1778030406 | 17.22° C | 41% | 1003.4 hPa | 0 mm | 2.68 m/s, 21° | - | - |
* Rain latest hour (hover to see other rain measurements)
** Current wind speed in m/s (hover to see current wind gust speed)